Time;durP1;ratioP1;P1;durP2;ratioP2;P2;SDS_P1;SDS_P2;PMS_P1;PMS_P2;Temp;Humidity;BMP_temperature;BMP_pressure;BME280_temperature;BME280_humidity;BME280_pressure;Samples;Min_cycle;Max_cycle;Signal;HPM_P1;HPM_P2
2022/10/11 00:00:40;;;;;;;11.70;1.83;;;8.40;99.90;;;;;;5150665;27;20035;-66
2022/10/11 00:03:06;;;;;;;15.68;1.98;;;8.40;99.90;;;;;;5147484;27;20385;-77
2022/10/11 00:05:33;;;;;;;15.32;2.60;;;8.40;99.90;;;;;;5131150;27;20117;-67
2022/10/11 00:07:59;;;;;;;9.80;2.22;;;8.40;99.90;;;;;;5150592;27;20070;-87
2022/10/11 00:10:24;;;;;;;12.35;2.25;;;8.40;99.90;;;;;;5123658;27;20105;-66
2022/10/11 00:12:53;;;;;;;13.65;2.45;;;8.40;99.90;;;;;;5121565;27;20122;-94
2022/10/11 00:15:21;;;;;;;16.63;3.05;;;8.40;99.90;;;;;;5147563;27;20067;-67
2022/10/11 00:17:47;;;;;;;16.55;2.53;;;8.40;99.90;;;;;;5150368;27;20083;-67
2022/10/11 00:20:13;;;;;;;15.32;2.42;;;8.40;99.90;;;;;;5134517;27;20422;-77
2022/10/11 00:22:39;;;;;;;18.48;2.75;;;8.40;99.90;;;;;;5149827;27;20058;-76
2022/10/11 00:25:07;;;;;;;10.57;2.50;;;8.40;99.90;;;;;;5150039;27;20050;-66
2022/10/11 00:27:34;;;;;;;17.83;2.80;;;8.50;99.90;;;;;;5130803;27;20429;-91
2022/10/11 00:30:00;;;;;;;15.80;2.28;;;8.40;99.90;;;;;;5150448;27;20054;-67
2022/10/11 00:32:26;;;;;;;14.80;2.25;;;8.40;99.90;;;;;;5147498;27;20038;-77
2022/10/11 00:34:52;;;;;;;19.90;2.25;;;8.50;99.90;;;;;;5131907;27;20377;-67
2022/10/11 00:37:18;;;;;;;14.88;2.30;;;8.50;99.90;;;;;;5098343;27;20078;-67
2022/10/11 00:39:43;;;;;;;12.38;2.63;;;8.40;99.90;;;;;;5149036;27;20042;-80
2022/10/11 00:42:14;;;;;;;17.05;2.85;;;8.40;99.90;;;;;;5149162;27;20099;-66
2022/10/11 00:44:45;;;;;;;15.45;2.40;;;8.40;99.90;;;;;;5130894;27;20476;-67
2022/10/11 00:47:17;;;;;;;11.20;2.50;;;8.40;99.90;;;;;;5130631;27;20042;-67
2022/10/11 00:49:56;;;;;;;13.48;1.95;;;8.40;99.90;;;;;;5130219;27;20117;-66
2022/10/11 00:52:30;;;;;;;16.87;2.87;;;8.40;99.90;;;;;;5131323;27;20047;-66
2022/10/11 00:54:58;;;;;;;12.68;2.20;;;8.40;99.90;;;;;;5148875;27;20766;-67
2022/10/11 00:57:28;;;;;;;17.27;2.65;;;8.30;99.90;;;;;;5148761;27;20037;-67
2022/10/11 00:59:54;;;;;;;;;;;8.40;99.90;;;;;;5149833;27;20282;-67
2022/10/11 01:02:22;;;;;;;20.95;2.85;;;8.40;99.90;;;;;;5129415;27;19919;-89
2022/10/11 01:04:49;;;;;;;8.45;1.63;;;8.40;99.90;;;;;;5149339;27;20053;-66
2022/10/11 01:07:17;;;;;;;17.52;2.90;;;8.30;99.90;;;;;;5147767;27;20043;-66
2022/10/11 01:09:43;;;;;;;16.58;2.45;;;8.20;99.90;;;;;;5146202;27;20058;-66
2022/10/11 01:12:20;;;;;;;10.57;2.00;;;8.20;99.90;;;;;;5118384;27;20400;-85
2022/10/11 01:15:19;;;;;;;12.10;2.35;;;8.10;99.90;;;;;;5145307;27;20551;-66
2022/10/11 01:17:50;;;;;;;16.20;3.00;;;8.10;99.90;;;;;;5149241;27;20487;-66
2022/10/11 01:20:37;;;;;;;12.35;1.77;;;8.10;99.90;;;;;;5115160;27;20133;-66
2022/10/11 01:23:41;;;;;;;14.18;2.78;;;8.10;99.90;;;;;;5129843;27;20039;-66
2022/10/11 01:26:28;;;;;;;9.82;2.08;;;8.00;99.90;;;;;;5148903;27;20325;-66
2022/10/11 01:29:11;;;;;;;9.75;1.65;;;8.00;99.90;;;;;;5134844;27;20045;-66
2022/10/11 01:31:57;;;;;;;11.23;2.30;;;8.00;99.90;;;;;;5148707;27;20050;-94
2022/10/11 01:34:48;;;;;;;17.50;3.22;;;7.90;99.90;;;;;;5148570;27;20413;-66
2022/10/11 01:37:24;;;;;;;10.93;1.90;;;7.90;99.90;;;;;;5147245;27;20081;-66
2022/10/11 01:40:17;;;;;;;17.70;1.73;;;7.80;99.90;;;;;;5130295;27;20107;-66
2022/10/11 01:42:44;;;;;;;7.22;1.95;;;7.80;99.90;;;;;;5115069;27;20042;-66
2022/10/11 01:45:14;;;;;;;15.00;2.08;;;7.80;99.90;;;;;;5123963;27;20488;-77
2022/10/11 01:47:41;;;;;;;15.50;1.98;;;7.90;99.90;;;;;;5148744;27;20056;-66
2022/10/11 01:50:36;;;;;;;13.68;2.03;;;7.90;99.90;;;;;;5147354;27;20488;-66
2022/10/11 01:53:22;;;;;;;14.13;2.17;;;7.90;99.90;;;;;;5130116;27;20084;-67
2022/10/11 01:56:19;;;;;;;13.95;2.38;;;8.00;99.90;;;;;;5148059;27;20046;-66
2022/10/11 01:58:59;;;;;;;10.15;1.95;;;8.00;99.90;;;;;;5147810;27;20512;-66
2022/10/11 02:01:49;;;;;;;8.85;1.70;;;8.10;99.90;;;;;;5148145;27;20047;-66
2022/10/11 02:04:29;;;;;;;9.13;1.83;;;7.90;99.90;;;;;;5129226;27;20130;-94
2022/10/11 02:07:06;;;;;;;13.05;1.67;;;7.90;99.90;;;;;;5128637;27;20368;-67
2022/10/11 02:09:48;;;;;;;9.88;1.83;;;7.80;99.90;;;;;;5146691;27;20471;-67
2022/10/11 02:12:25;;;;;;;15.75;2.15;;;7.80;99.90;;;;;;5118658;27;20046;-66
2022/10/11 02:14:55;;;;;;;18.27;2.28;;;7.80;99.90;;;;;;5148834;27;20389;-66
2022/10/11 02:17:27;;;;;;;8.40;1.52;;;7.70;99.90;;;;;;5147242;27;20023;-66
2022/10/11 02:19:57;;;;;;;12.40;1.92;;;7.60;99.90;;;;;;5147855;27;20490;-78
2022/10/11 02:22:31;;;;;;;13.48;1.95;;;7.60;99.90;;;;;;5148249;27;20419;-67
2022/10/11 02:25:00;;;;;;;13.60;2.15;;;7.50;99.90;;;;;;5127012;27;20217;-68
2022/10/11 02:27:29;;;;;;;14.07;2.38;;;7.40;99.90;;;;;;5133114;27;20039;-67
2022/10/11 02:29:58;;;;;;;11.77;2.50;;;7.40;99.90;;;;;;5130749;27;20100;-66
2022/10/11 02:32:26;;;;;;;14.07;2.30;;;7.30;99.90;;;;;;5132131;27;20043;-72
2022/10/11 02:34:55;;;;;;;11.25;2.03;;;7.30;99.90;;;;;;5120468;27;20050;-70
2022/10/11 02:37:30;;;;;;;13.80;3.25;;;7.30;99.90;;;;;;5125544;27;20038;-67
2022/10/11 02:40:07;;;;;;;14.45;2.22;;;7.40;99.90;;;;;;5129640;27;20090;-66
2022/10/11 02:42:38;;;;;;;12.23;2.30;;;7.40;99.90;;;;;;5127962;27;20694;-66
2022/10/11 02:45:15;;;;;;;13.55;2.22;;;7.40;99.90;;;;;;5148015;27;20076;-66
2022/10/11 02:47:41;;;;;;;8.50;2.30;;;7.40;99.90;;;;;;5128334;27;20050;-66
2022/10/11 02:50:09;;;;;;;14.57;2.30;;;7.50;99.90;;;;;;5147386;27;20035;-66
2022/10/11 02:52:35;;;;;;;14.05;1.90;;;7.50;99.90;;;;;;5147444;27;20077;-66
2022/10/11 02:55:01;;;;;;;8.15;1.83;;;7.40;99.90;;;;;;5147089;27;20880;-67
2022/10/11 02:57:26;;;;;;;12.00;1.90;;;7.40;99.90;;;;;;5146882;27;20042;-66
2022/10/11 02:59:52;;;;;;;6.90;1.33;;;7.30;99.90;;;;;;5128395;27;20039;-66
2022/10/11 03:02:18;;;;;;;14.55;2.20;;;7.20;99.90;;;;;;5149348;27;20050;-66
2022/10/11 03:04:43;;;;;;;10.60;2.08;;;7.20;99.90;;;;;;5114913;27;20065;-94
2022/10/11 03:07:09;;;;;;;10.20;2.10;;;7.10;99.90;;;;;;5132878;27;20042;-67
2022/10/11 03:09:35;;;;;;;10.82;1.50;;;7.10;99.90;;;;;;5130624;27;20081;-66
2022/10/11 03:12:00;;;;;;;16.73;2.70;;;7.00;99.90;;;;;;5116359;27;20397;-91
2022/10/11 03:14:26;;;;;;;14.18;1.90;;;7.00;99.90;;;;;;5145093;27;20046;-81
2022/10/11 03:16:52;;;;;;;10.70;2.60;;;6.90;99.90;;;;;;5128373;27;20043;-66
2022/10/11 03:19:17;;;;;;;10.60;1.73;;;6.90;99.90;;;;;;5142020;27;20047;-66
2022/10/11 03:21:43;;;;;;;24.05;2.58;;;7.00;99.90;;;;;;5150055;27;20039;-66
2022/10/11 03:24:09;;;;;;;15.52;1.73;;;7.00;99.90;;;;;;5128924;27;20077;-66
2022/10/11 03:26:35;;;;;;;8.82;2.00;;;7.00;99.90;;;;;;5126851;27;20059;-66
2022/10/11 03:29:01;;;;;;;13.77;1.90;;;6.90;99.90;;;;;;5128931;27;20062;-66
2022/10/11 03:31:26;;;;;;;8.48;1.48;;;6.90;99.90;;;;;;5128201;27;20047;-85
2022/10/11 03:33:52;;;;;;;14.30;2.22;;;6.80;99.90;;;;;;5115309;27;20141;-66
2022/10/11 03:36:18;;;;;;;9.43;2.00;;;6.80;99.90;;;;;;5129437;27;20047;-66
2022/10/11 03:38:43;;;;;;;24.35;2.72;;;6.90;99.90;;;;;;5127362;27;20046;-66
2022/10/11 03:41:09;;;;;;;26.85;2.78;;;6.90;99.90;;;;;;5129113;27;20172;-66
2022/10/11 03:43:35;;;;;;;8.85;2.00;;;6.90;99.90;;;;;;5128636;27;20040;-66
2022/10/11 03:46:01;;;;;;;21.88;1.70;;;7.00;99.90;;;;;;5130289;27;20506;-67
2022/10/11 03:48:26;;;;;;;13.73;2.17;;;7.00;99.90;;;;;;5125541;27;20040;-67
2022/10/11 03:50:52;;;;;;;10.30;2.13;;;6.90;99.90;;;;;;5113542;27;20050;-93
2022/10/11 03:53:18;;;;;;;12.35;2.20;;;6.90;99.90;;;;;;5124516;27;20036;-84
2022/10/11 03:55:44;;;;;;;13.93;2.03;;;6.90;99.90;;;;;;5125547;27;20096;-66
2022/10/11 03:58:10;;;;;;;13.32;2.55;;;6.90;99.90;;;;;;5130411;27;20043;-66
2022/10/11 04:00:36;;;;;;;13.50;1.92;;;6.90;99.90;;;;;;5130031;27;20118;-67
2022/10/11 04:03:05;;;;;;;17.40;2.28;;;7.00;99.90;;;;;;5133425;27;20151;-67
2022/10/11 04:05:30;;;;;;;12.15;2.10;;;7.00;99.90;;;;;;5117093;27;20039;-67
2022/10/11 04:07:56;;;;;;;15.07;1.95;;;7.00;99.90;;;;;;5129985;27;20388;-66
2022/10/11 04:10:22;;;;;;;9.30;1.88;;;7.00;99.90;;;;;;5122814;27;20093;-67
2022/10/11 04:12:48;;;;;;;16.08;2.38;;;7.00;99.90;;;;;;5121084;27;20036;-66
2022/10/11 04:15:13;;;;;;;29.38;2.60;;;6.90;99.90;;;;;;5129159;27;20043;-66
2022/10/11 04:17:40;;;;;;;11.70;1.92;;;7.00;99.90;;;;;;5126942;27;20035;-66
2022/10/11 04:20:06;;;;;;;11.77;1.95;;;7.00;99.90;;;;;;5128552;27;20047;-66
2022/10/11 04:22:32;;;;;;;13.48;2.22;;;7.00;99.90;;;;;;5110150;27;20043;-67
2022/10/11 04:24:58;;;;;;;17.67;2.78;;;7.00;99.90;;;;;;5146219;27;20499;-75
2022/10/11 04:27:28;;;;;;;11.05;1.83;;;7.00;99.90;;;;;;5150026;27;20399;-66
2022/10/11 04:29:54;;;;;;;11.03;2.30;;;7.00;99.90;;;;;;5149040;27;20122;-66
2022/10/11 04:32:20;;;;;;;13.23;1.83;;;7.00;99.90;;;;;;5149969;27;20379;-67
2022/10/11 04:34:45;;;;;;;10.25;1.42;;;7.00;99.90;;;;;;5148400;27;20095;-66
2022/10/11 04:37:11;;;;;;;8.65;2.28;;;7.00;99.90;;;;;;5131326;27;20031;-66
2022/10/11 04:39:37;;;;;;;11.45;2.45;;;6.80;99.90;;;;;;5109805;27;20054;-90
2022/10/11 04:42:04;;;;;;;12.70;2.70;;;6.70;99.90;;;;;;5147429;27;20039;-66
2022/10/11 04:44:30;;;;;;;8.13;1.80;;;6.70;99.90;;;;;;5149075;27;20046;-66
2022/10/11 04:46:56;;;;;;;10.60;1.88;;;6.60;99.90;;;;;;5148952;27;20541;-94
2022/10/11 04:49:22;;;;;;;13.25;2.50;;;6.50;99.90;;;;;;5131374;27;20043;-66
2022/10/11 04:51:48;;;;;;;12.30;1.95;;;6.50;99.90;;;;;;5130175;27;20049;-66
2022/10/11 04:54:14;;;;;;;14.13;2.47;;;6.60;99.90;;;;;;5130439;27;20074;-89
2022/10/11 04:56:39;;;;;;;16.40;2.13;;;6.50;99.90;;;;;;5148139;27;20062;-66
2022/10/11 04:59:05;;;;;;;15.23;2.28;;;6.60;99.90;;;;;;5149561;27;20042;-66
2022/10/11 05:01:31;;;;;;;16.98;2.63;;;6.60;99.90;;;;;;5141011;27;20132;-96
2022/10/11 05:03:57;;;;;;;10.40;2.00;;;6.70;99.90;;;;;;5110099;27;20441;-81
2022/10/11 05:06:23;;;;;;;11.32;3.60;;;6.70;99.90;;;;;;5090708;27;20046;-66
2022/10/11 05:08:49;;;;;;;12.35;2.40;;;6.80;99.90;;;;;;5111533;27;20055;-75
2022/10/11 05:11:16;;;;;;;17.40;2.58;;;6.80;99.90;;;;;;5116106;27;20072;-66
2022/10/11 05:13:42;;;;;;;12.75;1.85;;;6.80;99.90;;;;;;5140891;27;20100;-66
2022/10/11 05:16:08;;;;;;;12.32;1.85;;;6.80;99.90;;;;;;5143090;27;20079;-81
2022/10/11 05:18:34;;;;;;;13.40;3.05;;;6.80;99.90;;;;;;5148365;27;20051;-67
2022/10/11 05:21:06;;;;;;;13.70;2.55;;;6.80;99.90;;;;;;5129759;27;20545;-66
2022/10/11 05:23:33;;;;;;;14.52;2.25;;;6.80;99.90;;;;;;5129511;27;20051;-66
2022/10/11 05:26:00;;;;;;;15.27;2.15;;;6.80;99.90;;;;;;5148596;27;20042;-67
2022/10/11 05:28:26;;;;;;;8.40;2.05;;;6.80;99.90;;;;;;5149758;27;20472;-67
2022/10/11 05:30:52;;;;;;;14.02;1.98;;;6.90;99.90;;;;;;5147153;27;20428;-92
2022/10/11 05:33:18;;;;;;;14.05;2.70;;;6.80;99.90;;;;;;5148948;27;20038;-66
2022/10/11 05:35:44;;;;;;;10.93;1.98;;;6.80;99.90;;;;;;5128255;27;20122;-67
2022/10/11 05:38:10;;;;;;;14.82;2.63;;;6.90;99.90;;;;;;5130520;27;20035;-66
2022/10/11 05:40:37;;;;;;;14.40;1.92;;;6.90;99.90;;;;;;5129690;27;20107;-67
2022/10/11 05:43:03;;;;;;;19.50;2.80;;;6.90;99.90;;;;;;5112843;27;20035;-66
2022/10/11 05:45:29;;;;;;;17.52;2.35;;;6.90;99.90;;;;;;5148165;27;20045;-92
2022/10/11 05:47:54;;;;;;;16.98;2.38;;;6.90;99.90;;;;;;5109812;27;20042;-66
2022/10/11 05:50:20;;;;;;;13.45;2.58;;;7.00;99.90;;;;;;5148755;27;20039;-67
2022/10/11 05:52:46;;;;;;;16.73;2.58;;;7.00;99.90;;;;;;5128851;27;20095;-88
2022/10/11 05:55:12;;;;;;;6.53;2.10;;;7.10;99.90;;;;;;5130398;27;20085;-76
2022/10/11 05:57:37;;;;;;;17.17;2.42;;;7.10;99.90;;;;;;5147211;27;20042;-67
2022/10/11 06:00:04;;;;;;;13.65;2.17;;;7.10;99.90;;;;;;5128766;27;20622;-83
2022/10/11 06:02:30;;;;;;;7.78;1.83;;;7.10;99.90;;;;;;5129345;27;20121;-66
2022/10/11 06:04:56;;;;;;;12.45;2.50;;;7.10;99.90;;;;;;5124408;27;20138;-66
2022/10/11 06:07:21;;;;;;;9.40;2.88;;;7.10;99.90;;;;;;5129600;27;20087;-89
2022/10/11 06:09:47;;;;;;;16.63;2.42;;;7.10;99.90;;;;;;5125479;27;20086;-92
2022/10/11 06:12:13;;;;;;;17.27;2.40;;;7.20;99.90;;;;;;5119516;27;20119;-67
2022/10/11 06:14:39;;;;;;;14.93;2.80;;;7.20;99.90;;;;;;5147257;27;20047;-91
2022/10/11 06:17:04;;;;;;;8.65;1.88;;;7.20;99.90;;;;;;5130316;27;20746;-66
2022/10/11 06:19:30;;;;;;;14.32;2.28;;;7.30;99.90;;;;;;5129460;27;20121;-66
2022/10/11 06:21:56;;;;;;;11.65;2.10;;;7.20;99.90;;;;;;5147856;27;20046;-66
2022/10/11 06:24:21;;;;;;;9.90;1.88;;;7.30;99.90;;;;;;5129855;27;20414;-66
2022/10/11 06:26:48;;;;;;;13.77;2.47;;;7.30;99.90;;;;;;5111151;27;20049;-89
2022/10/11 06:29:14;;;;;;;13.68;1.90;;;7.30;99.90;;;;;;5120009;27;20126;-95
2022/10/11 06:31:39;;;;;;;20.35;2.17;;;7.30;99.90;;;;;;5142396;27;20125;-66
2022/10/11 06:34:05;;;;;;;17.55;2.55;;;7.30;99.90;;;;;;5127040;27;20049;-93
2022/10/11 06:36:31;;;;;;;13.00;2.17;;;7.40;99.90;;;;;;5103364;27;20114;-66
2022/10/11 06:38:59;;;;;;;7.85;2.22;;;7.40;99.90;;;;;;5126938;27;20168;-66
2022/10/11 06:41:27;;;;;;;12.48;2.45;;;7.50;99.90;;;;;;5152251;27;20039;-66
2022/10/11 06:43:54;;;;;;;14.90;2.22;;;7.40;99.90;;;;;;5132518;27;20627;-82
2022/10/11 06:46:24;;;;;;;13.95;2.20;;;7.50;99.90;;;;;;5152100;27;20047;-67
2022/10/11 06:48:50;;;;;;;15.27;2.60;;;7.50;99.90;;;;;;5132961;27;20050;-66
2022/10/11 06:51:17;;;;;;;11.77;2.08;;;7.50;99.90;;;;;;5133787;27;20478;-83
2022/10/11 06:53:51;;;;;;;12.48;2.97;;;7.60;99.90;;;;;;5151238;27;20489;-66
2022/10/11 06:56:17;;;;;;;12.90;2.10;;;7.70;99.90;;;;;;5133141;27;20027;-86
2022/10/11 06:58:43;;;;;;;11.70;2.83;;;7.80;99.90;;;;;;5127727;27;20179;-66
2022/10/11 07:01:12;;;;;;;8.38;2.10;;;7.90;99.90;;;;;;5125909;27;20153;-66
2022/10/11 07:03:38;;;;;;;12.50;2.13;;;8.00;99.90;;;;;;5119418;27;20069;-82
2022/10/11 07:06:09;;;;;;;10.48;2.15;;;8.10;99.90;;;;;;5114453;27;20051;-66
2022/10/11 07:08:36;;;;;;;15.48;2.42;;;8.20;99.90;;;;;;5098435;27;20078;-67
2022/10/11 07:11:04;;;;;;;15.27;2.55;;;8.40;99.90;;;;;;5123464;27;20050;-67
2022/10/11 07:13:29;;;;;;;11.02;2.20;;;8.60;99.90;;;;;;5115916;27;20572;-94
2022/10/11 07:15:55;;;;;;;18.58;2.72;;;8.80;99.90;;;;;;5150384;27;20065;-67
2022/10/11 07:18:22;;;;;;;14.60;2.30;;;8.90;99.90;;;;;;5132095;27;20468;-66
2022/10/11 07:20:48;;;;;;;14.95;3.03;;;9.10;99.90;;;;;;5151464;27;20108;-66
2022/10/11 07:23:14;;;;;;;16.05;2.33;;;9.30;99.90;;;;;;5131476;27;20034;-66
2022/10/11 07:25:40;;;;;;;10.73;2.15;;;9.30;99.90;;;;;;5133412;27;20099;-66
2022/10/11 07:28:05;;;;;;;13.45;1.95;;;9.40;99.90;;;;;;5112815;27;20070;-67
2022/10/11 07:30:31;;;;;;;16.23;2.10;;;9.50;99.90;;;;;;5150485;27;20050;-67
2022/10/11 07:32:57;;;;;;;7.85;2.00;;;9.60;99.90;;;;;;5118083;27;20071;-67
2022/10/11 07:35:22;;;;;;;16.10;2.53;;;9.60;99.90;;;;;;5151373;27;20054;-66
2022/10/11 07:37:48;;;;;;;11.45;2.17;;;9.60;99.90;;;;;;5146954;27;20051;-67
2022/10/11 07:40:14;;;;;;;14.70;2.53;;;9.60;99.90;;;;;;5131740;27;20369;-79
2022/10/11 07:42:40;;;;;;;12.20;2.70;;;9.60;99.90;;;;;;5123005;27;20315;-95
2022/10/11 07:45:06;;;;;;;15.48;2.20;;;9.60;99.90;;;;;;5144211;27;20064;-67
2022/10/11 07:47:31;;;;;;;11.57;2.25;;;9.70;99.90;;;;;;5141328;27;20039;-86
2022/10/11 07:49:57;;;;;;;13.38;2.10;;;9.80;99.90;;;;;;5119878;27;20043;-66
2022/10/11 07:52:23;;;;;;;16.85;2.78;;;9.80;99.90;;;;;;5119375;27;20039;-92
2022/10/11 07:54:49;;;;;;;11.73;2.40;;;9.80;99.90;;;;;;5122678;27;20091;-66
2022/10/11 07:57:14;;;;;;;14.43;2.35;;;9.90;99.90;;;;;;5122272;27;20050;-66
2022/10/11 07:59:40;;;;;;;14.05;2.30;;;10.00;99.90;;;;;;5115320;27;20048;-90
2022/10/11 08:02:11;;;;;;;15.95;2.00;;;10.00;99.90;;;;;;5125873;27;20034;-66
2022/10/11 08:04:37;;;;;;;19.88;2.45;;;10.10;99.90;;;;;;5141413;27;20103;-94
2022/10/11 08:07:03;;;;;;;20.50;2.42;;;10.10;99.90;;;;;;5136919;27;20114;-67
2022/10/11 08:09:29;;;;;;;12.77;2.42;;;10.10;99.90;;;;;;5118938;27;20131;-84
2022/10/11 08:11:54;;;;;;;14.25;2.50;;;10.20;99.90;;;;;;5141183;27;20043;-93
2022/10/11 08:14:20;;;;;;;17.10;2.63;;;10.30;99.90;;;;;;5139279;27;20039;-67
2022/10/11 08:16:46;;;;;;;9.13;1.83;;;10.50;99.90;;;;;;5121807;27;20050;-66
2022/10/11 08:19:12;;;;;;;13.27;2.33;;;10.80;99.90;;;;;;5132468;27;20060;-76
2022/10/11 08:21:38;;;;;;;18.83;2.63;;;11.00;99.90;;;;;;5146728;27;20082;-66
2022/10/11 08:24:05;;;;;;;15.55;2.72;;;11.20;99.90;;;;;;5146156;27;20444;-87
2022/10/11 08:26:31;;;;;;;11.82;2.22;;;11.50;99.90;;;;;;5137070;27;20507;-67
2022/10/11 08:29:02;;;;;;;17.40;3.65;;;11.70;99.90;;;;;;5137666;27;20039;-66
2022/10/11 08:31:27;;;;;;;7.22;1.50;;;11.80;99.90;;;;;;5125668;27;20046;-66
2022/10/11 08:33:53;;;;;;;10.88;2.60;;;12.00;99.90;;;;;;5131998;27;20039;-66
2022/10/11 08:36:19;;;;;;;16.85;2.55;;;12.10;99.90;;;;;;5129063;27;20065;-66
2022/10/11 08:38:45;;;;;;;10.80;1.90;;;12.10;99.90;;;;;;5109099;27;20115;-66
2022/10/11 08:41:25;;;;;;;20.17;3.88;;;12.10;99.90;;;;;;5131470;27;20074;-81
2022/10/11 08:44:15;;;;;;;13.43;2.17;;;12.10;99.90;;;;;;5138044;27;20642;-85
2022/10/11 08:46:44;;;;;;;;;;;12.20;99.90;;;;;;5142516;27;20041;-66
2022/10/11 08:49:12;;;;;;;13.82;2.00;;;12.20;99.90;;;;;;5151625;27;19923;-67
2022/10/11 08:51:45;;;;;;;14.65;2.10;;;12.20;99.90;;;;;;5152094;27;20126;-74
2022/10/11 08:54:20;;;;;;;15.55;2.80;;;12.20;99.90;;;;;;5152097;27;20042;-67
2022/10/11 08:56:47;;;;;;;17.63;2.42;;;12.20;99.90;;;;;;5150804;27;20051;-66
2022/10/11 08:59:28;;;;;;;10.82;2.60;;;12.30;99.90;;;;;;5107353;27;20398;-66
2022/10/11 09:02:02;;;;;;;11.15;1.77;;;12.40;99.90;;;;;;5148779;27;20075;-67
2022/10/11 09:04:28;;;;;;;14.00;2.25;;;12.50;99.90;;;;;;5137068;27;20085;-66
2022/10/11 09:07:19;;;;;;;11.60;2.45;;;12.70;99.90;;;;;;5129976;27;20504;-66
2022/10/11 09:09:45;;;;;;;17.70;3.25;;;12.80;99.90;;;;;;5143127;27;20457;-66
2022/10/11 09:12:19;;;;;;;12.57;2.05;;;13.00;99.90;;;;;;5142550;27;20077;-72
2022/10/11 09:15:10;;;;;;;14.77;2.10;;;13.00;99.90;;;;;;5134421;27;20605;-79
2022/10/11 09:17:36;;;;;;;16.77;1.98;;;13.00;99.90;;;;;;5134390;27;20495;-67
2022/10/11 09:20:20;;;;;;;18.60;2.40;;;13.00;99.90;;;;;;5147879;27;20041;-66
2022/10/11 09:23:27;;;;;;;18.98;2.63;;;13.10;99.90;;;;;;5148521;27;20570;-66
2022/10/11 09:25:58;;;;;;;13.45;2.00;;;13.30;99.90;;;;;;5141404;27;20054;-66
2022/10/11 09:29:03;;;;;;;10.30;1.88;;;13.40;99.90;;;;;;5126260;27;20085;-66
2022/10/11 09:31:29;;;;;;;15.18;2.72;;;13.50;99.90;;;;;;5129491;27;20061;-68
2022/10/11 09:33:57;;;;;;;11.00;2.22;;;13.70;99.90;;;;;;5130938;27;20055;-76
2022/10/11 09:36:38;;;;;;;21.58;3.33;;;13.70;99.90;;;;;;5118193;27;20086;-67
2022/10/11 09:39:30;;;;;;;11.73;1.92;;;13.80;99.90;;;;;;5121121;27;20331;-66
2022/10/11 09:42:01;;;;;;;29.98;3.00;;;13.80;99.90;;;;;;5129550;27;20147;-67
2022/10/11 09:44:34;;;;;;;13.73;2.55;;;13.80;99.90;;;;;;5126038;27;20038;-67
2022/10/11 09:47:00;;;;;;;13.40;2.35;;;13.80;99.90;;;;;;5114392;27;20396;-66
2022/10/11 09:49:43;;;;;;;19.85;2.95;;;13.90;99.90;;;;;;5110452;27;20053;-66
2022/10/11 09:52:21;;;;;;;18.17;2.83;;;14.00;99.90;;;;;;5140774;27;20538;-67
2022/10/11 09:54:50;;;;;;;15.43;2.28;;;14.10;99.90;;;;;;5142800;27;20043;-86
2022/10/11 09:57:38;;;;;;;6.32;1.20;;;14.30;99.90;;;;;;5142806;27;20043;-67
2022/10/11 10:00:07;;;;;;;14.70;2.13;;;14.40;99.90;;;;;;5146820;27;20087;-67
2022/10/11 10:02:50;;;;;;;14.88;2.25;;;14.50;99.90;;;;;;5146759;27;20043;-66
2022/10/11 10:05:25;;;;;;;16.08;2.28;;;14.50;99.90;;;;;;5128342;27;20323;-67
2022/10/11 10:07:59;;;;;;;25.77;2.90;;;14.60;99.90;;;;;;5146191;27;20066;-67
2022/10/11 10:10:37;;;;;;;12.27;2.85;;;14.60;99.90;;;;;;5123016;27;20591;-82
2022/10/11 10:13:13;;;;;;;11.55;2.17;;;14.60;99.90;;;;;;5128728;27;20046;-67
2022/10/11 10:15:45;;;;;;;14.25;2.33;;;14.60;99.90;;;;;;5148312;27;20421;-66
2022/10/11 10:18:38;;;;;;;11.27;1.98;;;14.70;99.90;;;;;;5128773;27;20082;-73
2022/10/11 10:21:08;;;;;;;9.05;2.00;;;14.80;99.90;;;;;;5146433;27;20047;-67
2022/10/11 10:23:36;;;;;;;10.77;1.67;;;14.90;99.90;;;;;;5143952;27;20046;-69
2022/10/11 10:26:24;;;;;;;10.65;2.22;;;15.00;99.90;;;;;;5098227;27;20043;-67
2022/10/11 10:28:54;;;;;;;10.68;1.83;;;15.10;99.90;;;;;;5140822;27;20043;-66
2022/10/11 10:31:23;;;;;;;14.98;2.70;;;15.30;99.90;;;;;;5130636;27;20504;-67
2022/10/11 10:33:53;;;;;;;14.95;2.90;;;15.30;99.90;;;;;;5111308;27;20730;-67
2022/10/11 10:36:25;;;;;;;17.77;2.70;;;15.40;99.30;;;;;;5134411;27;20043;-67
2022/10/11 10:39:19;;;;;;;10.23;2.05;;;15.50;95.80;;;;;;5108950;27;20051;-82
2022/10/11 10:41:46;;;;;;;13.07;2.17;;;15.60;97.30;;;;;;5084650;27;20059;-86
2022/10/11 10:44:14;;;;;;;15.32;2.08;;;15.60;91.00;;;;;;5125376;27;20039;-94
2022/10/11 10:46:47;;;;;;;11.00;1.90;;;15.60;92.60;;;;;;5107668;27;20047;-66
2022/10/11 10:49:25;;;;;;;21.75;3.47;;;15.60;93.20;;;;;;5116234;27;20050;-66
2022/10/11 10:52:04;;;;;;;13.38;2.03;;;15.60;89.90;;;;;;5113471;27;20055;-66
2022/10/11 10:54:51;;;;;;;12.57;2.35;;;15.60;99.00;;;;;;5125956;27;20053;-66
2022/10/11 10:57:39;;;;;;;14.30;1.85;;;15.50;96.60;;;;;;5137096;27;20047;-66
2022/10/11 11:00:14;;;;;;;12.52;2.22;;;15.40;95.30;;;;;;5122463;27;20475;-66
2022/10/11 11:02:56;;;;;;;19.25;2.40;;;15.20;93.60;;;;;;5137672;27;20113;-66
2022/10/11 11:05:44;;;;;;;13.07;2.47;;;15.00;97.30;;;;;;5114812;27;20039;-94
2022/10/11 11:08:50;;;;;;;16.13;2.47;;;14.90;95.40;;;;;;5130085;27;20058;-66
2022/10/11 11:11:16;;;;;;;13.20;2.70;;;14.80;97.50;;;;;;5114137;27;20054;-66
2022/10/11 11:14:10;;;;;;;8.65;1.92;;;14.70;95.60;;;;;;5118406;27;20429;-66
2022/10/11 11:17:01;;;;;;;13.73;2.30;;;14.70;97.60;;;;;;5093291;27;20042;-66
2022/10/11 11:19:52;;;;;;;11.95;2.55;;;14.60;94.90;;;;;;5132043;27;20549;-67
2022/10/11 11:22:42;;;;;;;6.93;1.60;;;14.60;93.40;;;;;;5133899;27;20057;-66
2022/10/11 11:25:18;;;;;;;;;;;14.80;97.80;;;;;;5126822;27;20497;-87
2022/10/11 11:28:08;;;;;;;13.85;1.85;;;14.80;86.40;;;;;;5121050;27;19927;-67
2022/10/11 11:30:43;;;;;;;;;;;14.80;88.80;;;;;;5121872;27;20043;-66
2022/10/11 11:33:30;;;;;;;11.15;2.35;;;14.70;90.20;;;;;;5124962;27;19919;-66
2022/10/11 11:36:02;;;;;;;8.38;1.95;;;14.60;93.20;;;;;;5125790;27;20073;-66
2022/10/11 11:38:32;;;;;;;14.73;2.45;;;14.60;98.30;;;;;;5119110;27;20068;-66
2022/10/11 11:41:04;;;;;;;9.60;2.60;;;14.50;93.50;;;;;;5130465;27;20087;-66
2022/10/11 11:43:50;;;;;;;11.48;2.00;;;14.50;96.30;;;;;;5128132;27;20131;-90
2022/10/11 11:46:20;;;;;;;16.05;2.45;;;14.40;97.00;;;;;;5127920;27;20080;-87
2022/10/11 11:48:49;;;;;;;15.75;2.90;;;14.40;97.60;;;;;;5127597;27;20043;-66
2022/10/11 11:51:20;;;;;;;11.85;2.00;;;14.50;99.90;;;;;;5127444;27;20108;-67
2022/10/11 11:53:48;;;;;;;11.48;2.38;;;14.60;97.70;;;;;;5128672;27;20130;-66
2022/10/11 11:56:55;;;;;;;10.30;2.22;;;14.60;99.20;;;;;;5127035;27;20043;-67
2022/10/11 11:59:27;;;;;;;10.93;1.98;;;14.60;96.60;;;;;;5042430;28;20037;-66
2022/10/11 12:02:11;;;;;;;10.48;2.25;;;14.60;98.50;;;;;;5109139;27;20054;-69
2022/10/11 12:04:40;;;;;;;9.77;2.10;;;14.60;98.40;;;;;;5121214;27;20070;-66
2022/10/11 12:07:10;;;;;;;16.38;2.63;;;14.50;97.10;;;;;;5128738;27;20139;-66
2022/10/11 12:09:38;;;;;;;13.07;2.30;;;14.50;99.90;;;;;;5125082;27;20046;-82
2022/10/11 12:12:24;;;;;;;9.45;2.72;;;14.40;99.90;;;;;;5114070;27;20042;-67
2022/10/11 12:15:00;;;;;;;10.60;1.80;;;14.30;99.90;;;;;;5124623;27;20118;-66
2022/10/11 12:17:27;;;;;;;10.05;1.63;;;14.20;98.10;;;;;;5125165;27;20239;-66
2022/10/11 12:20:20;;;;;;;10.73;1.83;;;14.10;98.70;;;;;;5125813;27;20131;-67
2022/10/11 12:22:48;;;;;;;13.75;2.35;;;14.10;97.50;;;;;;5125460;27;20573;-66
2022/10/11 12:25:14;;;;;;;10.43;1.77;;;14.00;96.50;;;;;;5146104;27;20042;-66
2022/10/11 12:27:42;;;;;;;10.32;2.10;;;14.00;94.50;;;;;;5130121;27;20054;-66
2022/10/11 12:30:52;;;;;;;15.43;1.50;;;14.00;96.90;;;;;;5149361;27;20039;-66
2022/10/11 12:33:24;;;;;;;11.32;1.48;;;14.10;98.50;;;;;;5145449;27;20043;-66
2022/10/11 12:35:52;;;;;;;10.57;2.38;;;14.10;97.50;;;;;;5111351;27;20043;-67
2022/10/11 12:38:25;;;;;;;15.73;2.10;;;14.10;98.10;;;;;;5147318;27;20046;-67
2022/10/11 12:41:12;;;;;;;7.57;1.20;;;14.20;99.00;;;;;;5148703;27;20086;-67
2022/10/11 12:43:47;;;;;;;14.15;1.88;;;14.20;99.90;;;;;;5095111;27;20063;-67
2022/10/11 12:46:31;;;;;;;10.75;2.25;;;14.20;98.70;;;;;;5130271;27;20049;-67
2022/10/11 12:49:23;;;;;;;9.73;1.65;;;14.20;99.90;;;;;;5148375;27;20049;-67
2022/10/11 12:51:59;;;;;;;12.50;1.98;;;14.20;99.90;;;;;;5107256;27;20398;-93
2022/10/11 12:54:38;;;;;;;8.48;1.63;;;14.20;99.90;;;;;;5130081;27;20039;-67
2022/10/11 12:57:28;;;;;;;12.60;1.90;;;14.20;99.90;;;;;;5127451;27;20126;-82
2022/10/11 13:00:05;;;;;;;11.77;2.10;;;14.20;99.90;;;;;;5149285;27;20377;-67
2022/10/11 13:02:49;;;;;;;8.90;2.08;;;14.20;99.90;;;;;;5129001;27;20035;-67
2022/10/11 13:05:26;;;;;;;9.02;1.73;;;14.20;99.90;;;;;;5147792;27;20050;-67
2022/10/11 13:07:55;;;;;;;16.95;1.88;;;14.20;99.90;;;;;;5148808;27;20046;-66